createdAt,value
2018-02-19T00:00:17.703Z,101984.10
2018-02-19T00:02:45.825Z,101988.06
2018-02-19T00:05:13.968Z,101986.05
2018-02-19T00:07:42.087Z,101988.09
2018-02-19T00:10:10.208Z,101993.73
2018-02-19T00:12:38.351Z,101990.36
2018-02-19T00:15:06.489Z,101988.22
2018-02-19T00:17:34.683Z,101977.38
2018-02-19T00:20:02.802Z,101970.36
2018-02-19T00:22:30.920Z,101971.46
2018-02-19T00:24:59.092Z,101965.84
2018-02-19T00:27:27.227Z,101960.20
2018-02-19T00:29:55.404Z,101957.95
2018-02-19T00:32:23.522Z,101962.24
2018-02-19T00:34:51.635Z,101963.23
2018-02-19T00:37:19.813Z,101958.66
2018-02-19T00:39:47.934Z,101953.62
2018-02-19T00:42:16.083Z,101945.53
2018-02-19T00:44:44.221Z,101946.50
2018-02-19T00:47:12.384Z,101946.91
2018-02-19T00:49:40.573Z,101944.44
2018-02-19T00:52:08.725Z,101939.00
2018-02-19T00:54:36.905Z,101937.02
2018-02-19T00:57:05.247Z,101933.20
2018-02-19T00:59:33.389Z,101932.30
2018-02-19T01:02:01.510Z,101934.11
2018-02-19T01:04:29.624Z,101931.53
2018-02-19T01:06:57.745Z,101933.75
2018-02-19T01:09:25.861Z,101930.33
2018-02-19T01:11:54.005Z,101926.81
2018-02-19T01:14:22.115Z,101926.67
2018-02-19T01:16:50.236Z,101931.95
2018-02-19T01:19:18.367Z,101929.41
2018-02-19T01:21:46.477Z,101923.46
2018-02-19T01:24:14.599Z,101918.30
2018-02-19T01:26:42.724Z,101920.58
2018-02-19T01:29:10.837Z,101912.41
2018-02-19T01:31:38.969Z,101911.16
2018-02-19T01:34:07.087Z,101912.50
2018-02-19T01:36:35.218Z,101905.86
2018-02-19T01:39:03.355Z,101899.86
2018-02-19T01:41:31.480Z,101895.86
2018-02-19T01:43:59.583Z,101894.19
2018-02-19T01:46:27.725Z,101884.13
2018-02-19T01:48:55.835Z,101891.22
2018-02-19T01:51:23.992Z,101880.61
2018-02-19T01:53:52.092Z,101882.94
2018-02-19T01:56:20.226Z,101875.16
2018-02-19T01:58:48.347Z,101881.22
2018-02-19T02:01:16.493Z,101881.27
2018-02-19T02:03:44.636Z,101872.75
2018-02-19T02:06:12.842Z,101870.74
2018-02-19T02:08:41.230Z,101872.23
2018-02-19T02:11:09.430Z,101870.63
2018-02-19T02:13:37.568Z,101872.22
2018-02-19T02:16:05.688Z,101872.81
2018-02-19T02:18:33.814Z,101869.22
2018-02-19T02:21:01.978Z,101876.44
2018-02-19T02:23:30.096Z,101869.30
2018-02-19T02:25:58.233Z,101871.25
2018-02-19T02:28:26.361Z,101870.40
2018-02-19T02:30:54.483Z,101866.69
2018-02-19T02:33:22.611Z,101865.89
2018-02-19T02:35:50.733Z,101865.70
2018-02-19T02:38:18.847Z,101869.47
2018-02-19T02:40:46.970Z,101866.19
2018-02-19T02:43:15.103Z,101857.22
2018-02-19T02:45:43.215Z,101855.38
2018-02-19T02:48:11.350Z,101855.77
2018-02-19T02:50:39.475Z,101853.80
2018-02-19T02:53:07.599Z,101850.52
2018-02-19T02:55:35.703Z,101856.97
2018-02-19T02:58:03.834Z,101857.56
2018-02-19T03:00:31.942Z,101855.12
2018-02-19T03:03:00.100Z,101859.77
2018-02-19T03:05:28.217Z,101863.35
2018-02-19T03:07:56.318Z,101860.52
2018-02-19T03:10:24.434Z,101863.66
2018-02-19T03:12:52.619Z,101856.61
2018-02-19T03:15:20.730Z,101862.59
2018-02-19T03:17:48.858Z,101859.23
2018-02-19T03:20:16.976Z,101860.99
2018-02-19T03:22:45.084Z,101863.22
2018-02-19T03:25:13.232Z,101865.36
2018-02-19T03:27:41.343Z,101863.95
2018-02-19T03:30:09.470Z,101859.69
2018-02-19T03:32:37.580Z,101863.48
2018-02-19T03:35:05.687Z,101868.09
2018-02-19T03:37:33.802Z,101868.24
2018-02-19T03:40:01.933Z,101863.08
2018-02-19T03:42:30.044Z,101860.42
2018-02-19T03:44:58.176Z,101857.19
2018-02-19T03:47:26.282Z,101855.52
2018-02-19T03:49:54.410Z,101839.45
2018-02-19T03:52:22.512Z,101844.85
2018-02-19T03:54:50.641Z,101840.82
2018-02-19T03:57:18.764Z,101836.80
2018-02-19T03:59:46.884Z,101828.74
2018-02-19T04:02:15.010Z,101828.22
2018-02-19T04:04:43.116Z,101818.80
2018-02-19T04:07:12.107Z,101817.92
2018-02-19T04:09:40.216Z,101812.41
2018-02-19T04:12:08.341Z,101813.34
2018-02-19T04:14:36.454Z,101809.75
2018-02-19T04:17:04.566Z,101804.61
2018-02-19T04:19:32.692Z,101800.13
2018-02-19T04:22:00.831Z,101792.08
2018-02-19T04:24:28.949Z,101789.16
2018-02-19T04:26:57.092Z,101789.23
2018-02-19T04:29:25.213Z,101786.26
2018-02-19T04:31:53.363Z,101779.25
2018-02-19T04:34:21.477Z,101783.30
2018-02-19T04:36:49.586Z,101779.07
2018-02-19T04:39:17.699Z,101772.63
2018-02-19T04:41:45.842Z,101769.92
2018-02-19T04:47:15.850Z,101763.13
2018-02-19T04:49:43.970Z,101771.25
2018-02-19T04:52:12.101Z,101770.24
2018-02-19T04:54:40.216Z,101766.06
2018-02-19T04:57:08.323Z,101771.56
2018-02-19T04:59:36.439Z,101775.44
2018-02-19T05:02:04.574Z,101779.00
2018-02-19T05:04:32.744Z,101777.20
2018-02-19T05:07:00.857Z,101770.05
2018-02-19T05:09:29.005Z,101784.44
2018-02-19T05:11:57.113Z,101774.34
2018-02-19T05:14:25.250Z,101765.05
2018-02-19T05:16:53.351Z,101759.21
2018-02-19T05:19:21.501Z,101760.77
2018-02-19T05:21:49.605Z,101760.91
2018-02-19T05:24:17.733Z,101754.52
2018-02-19T05:26:45.854Z,101756.33
2018-02-19T05:29:13.970Z,101753.36
2018-02-19T05:31:42.077Z,101753.94
2018-02-19T05:34:10.213Z,101755.16
2018-02-19T05:36:38.338Z,101745.78
2018-02-19T05:39:06.452Z,101740.70
2018-02-19T05:41:34.568Z,101740.00
2018-02-19T05:44:02.705Z,101752.55
2018-02-19T05:46:30.818Z,101760.16
2018-02-19T05:48:58.946Z,101752.23
2018-02-19T05:51:27.074Z,101753.16
2018-02-19T05:53:55.319Z,101754.96
2018-02-19T05:56:23.492Z,101746.61
2018-02-19T05:58:51.591Z,101750.75
2018-02-19T06:01:19.734Z,101753.16
2018-02-19T06:03:47.844Z,101749.22
2018-02-19T06:06:15.979Z,101741.51
2018-02-19T06:08:44.147Z,101750.25
2018-02-19T06:11:12.283Z,101742.06
2018-02-19T06:13:40.407Z,101749.30
2018-02-19T06:16:08.526Z,101748.98
2018-02-19T06:18:36.685Z,101749.29
2018-02-19T06:21:04.768Z,101757.27
2018-02-19T06:23:36.711Z,101763.05
2018-02-19T06:26:04.844Z,101769.84
2018-02-19T06:28:32.959Z,101765.04
2018-02-19T06:31:01.104Z,101765.42
2018-02-19T06:33:29.226Z,101768.70
2018-02-19T06:35:57.368Z,101767.25
2018-02-19T06:38:25.825Z,101764.77
2018-02-19T06:40:53.946Z,101761.76
2018-02-19T06:43:22.111Z,101755.14
2018-02-19T06:45:50.202Z,101754.38
2018-02-19T06:48:18.349Z,101750.12
2018-02-19T06:50:46.447Z,101764.15
2018-02-19T06:53:14.577Z,101766.34
2018-02-19T06:55:42.702Z,101774.55
2018-02-19T06:58:10.825Z,101770.16
2018-02-19T07:00:38.941Z,101767.83
2018-02-19T07:03:07.073Z,101764.38
2018-02-19T07:05:35.195Z,101770.21
2018-02-19T07:08:03.671Z,101765.79
2018-02-19T07:10:31.782Z,101763.25
2018-02-19T07:12:59.913Z,101760.62
2018-02-19T07:15:28.047Z,101766.02
2018-02-19T07:17:56.203Z,101769.63
2018-02-19T07:20:24.312Z,101777.44
2018-02-19T07:22:56.091Z,101766.50
2018-02-19T07:25:24.230Z,101761.25
2018-02-19T07:27:55.701Z,101755.67
2018-02-19T07:30:23.978Z,101756.45
2018-02-19T07:32:52.079Z,101744.60
2018-02-19T07:35:20.204Z,101740.20
2018-02-19T07:37:48.348Z,101740.47
2018-02-19T07:40:16.515Z,101736.95
2018-02-19T07:42:44.624Z,101737.03
2018-02-19T07:45:12.752Z,101737.07
2018-02-19T07:47:41.264Z,101735.78
2018-02-19T07:50:09.397Z,101733.20
2018-02-19T07:52:37.527Z,101726.59
2018-02-19T07:55:05.670Z,101723.66
2018-02-19T07:57:33.785Z,101720.88
2018-02-19T08:00:01.909Z,101721.70
2018-02-19T08:02:30.034Z,101718.47
2018-02-19T08:04:59.047Z,101717.55
2018-02-19T08:07:27.184Z,101721.87
2018-02-19T08:09:55.314Z,101722.45
2018-02-19T08:12:23.440Z,101724.75
2018-02-19T08:14:51.574Z,101724.72
2018-02-19T08:17:19.670Z,101725.72
2018-02-19T08:19:47.786Z,101722.83
2018-02-19T08:22:15.917Z,101728.37
2018-02-19T08:24:44.029Z,101723.34
2018-02-19T08:27:12.171Z,101718.22
2018-02-19T08:29:40.272Z,101719.28
2018-02-19T08:32:08.395Z,101714.78
2018-02-19T08:34:36.566Z,101710.14
2018-02-19T08:37:04.703Z,101711.84
2018-02-19T08:39:32.826Z,101711.65
2018-02-19T08:42:00.949Z,101710.51
2018-02-19T08:44:29.138Z,101709.07
2018-02-19T08:46:57.271Z,101713.20
2018-02-19T08:49:25.455Z,101704.56
2018-02-19T08:51:53.626Z,101704.70
2018-02-19T08:54:22.271Z,101694.84
2018-02-19T08:56:50.482Z,101687.64
2018-02-19T08:59:21.904Z,101685.59
2018-02-19T09:01:53.396Z,101677.00
2018-02-19T09:04:21.606Z,101676.55
2018-02-19T09:06:49.761Z,101678.30
2018-02-19T09:09:17.890Z,101684.45
2018-02-19T09:11:49.399Z,101681.06
2018-02-19T09:14:17.719Z,101690.94
2018-02-19T09:16:46.161Z,101682.52
2018-02-19T09:19:14.373Z,101680.25
2018-02-19T09:21:42.508Z,101674.36
2018-02-19T09:24:10.728Z,101677.14
2018-02-19T09:26:38.841Z,101681.20
2018-02-19T09:29:06.965Z,101667.36
2018-02-19T09:31:35.086Z,101666.34
2018-02-19T09:34:03.234Z,101666.83
2018-02-19T09:36:31.367Z,101669.28
2018-02-19T09:38:59.483Z,101666.42
2018-02-19T09:41:27.667Z,101670.42
2018-02-19T09:43:55.809Z,101667.42
2018-02-19T09:46:23.920Z,101672.84
2018-02-19T09:48:52.040Z,101674.17
2018-02-19T09:51:20.164Z,101671.32
2018-02-19T09:53:48.290Z,101671.66
2018-02-19T09:56:16.424Z,101677.42
2018-02-19T09:58:44.555Z,101673.63
2018-02-19T10:01:12.678Z,101672.56
2018-02-19T10:03:40.784Z,101669.09
2018-02-19T10:06:08.923Z,101666.16
2018-02-19T10:08:37.053Z,101671.71
2018-02-19T10:11:05.190Z,101666.84
2018-02-19T10:13:33.320Z,101671.53
2018-02-19T10:16:01.449Z,101660.41
2018-02-19T10:18:29.605Z,101661.30
2018-02-19T10:20:57.751Z,101662.90
2018-02-19T10:23:25.888Z,101662.81
2018-02-19T10:25:57.042Z,101665.05
2018-02-19T10:28:25.714Z,101660.84
2018-02-19T10:30:53.854Z,101658.69
2018-02-19T10:33:22.053Z,101655.27
2018-02-19T10:35:50.173Z,101659.91
2018-02-19T10:38:18.297Z,101661.27
2018-02-19T10:40:46.472Z,101661.36
2018-02-19T10:43:14.606Z,101663.84
2018-02-19T10:45:42.734Z,101657.92
2018-02-19T10:48:10.867Z,101655.36
2018-02-19T10:50:38.995Z,101660.59
2018-02-19T10:53:07.115Z,101658.64
2018-02-19T10:55:35.224Z,101662.51
2018-02-19T10:58:03.350Z,101666.01
2018-02-19T11:00:37.317Z,101666.19
2018-02-19T11:03:05.469Z,101660.28
2018-02-19T11:05:33.572Z,101658.36
2018-02-19T11:08:01.699Z,101659.67
2018-02-19T11:10:29.809Z,101654.77
2018-02-19T11:12:57.961Z,101653.23
2018-02-19T11:15:26.099Z,101655.01
2018-02-19T11:17:54.287Z,101645.84
2018-02-19T11:20:22.424Z,101635.95
2018-02-19T11:22:50.544Z,101636.52
2018-02-19T11:25:18.668Z,101634.39
2018-02-19T11:27:46.776Z,101627.13
2018-02-19T11:30:14.952Z,101622.22
2018-02-19T11:32:43.098Z,101617.41
2018-02-19T11:35:11.227Z,101614.70
2018-02-19T11:37:39.352Z,101614.27
2018-02-19T11:40:07.470Z,101610.92
2018-02-19T11:42:35.595Z,101614.20
2018-02-19T11:45:03.724Z,101614.59
2018-02-19T11:47:31.841Z,101610.03
2018-02-19T11:49:59.978Z,101607.80
2018-02-19T11:52:28.104Z,101608.66
2018-02-19T11:54:56.252Z,101602.24
2018-02-19T11:57:24.381Z,101604.53
2018-02-19T11:59:52.549Z,101606.33
2018-02-19T12:02:20.607Z,101604.45
2018-02-19T12:04:48.749Z,101596.61
2018-02-19T12:07:16.869Z,101593.53
2018-02-19T12:09:45.001Z,101592.16
2018-02-19T12:12:13.107Z,101590.92
2018-02-19T12:14:41.255Z,101591.12
2018-02-19T12:17:09.390Z,101595.96
2018-02-19T12:19:37.519Z,101585.48
2018-02-19T12:22:05.665Z,101588.19
2018-02-19T12:24:33.796Z,101582.99
2018-02-19T12:27:01.922Z,101575.06
2018-02-19T12:29:30.034Z,101575.83
2018-02-19T12:31:58.146Z,101568.47
2018-02-19T12:34:26.322Z,101567.41
2018-02-19T12:36:54.418Z,101566.52
2018-02-19T12:39:22.555Z,101558.56
2018-02-19T12:41:50.674Z,101563.37
2018-02-19T12:44:18.820Z,101563.27
2018-02-19T12:46:46.930Z,101551.31
2018-02-19T12:49:15.090Z,101552.52
2018-02-19T12:51:43.199Z,101551.63
2018-02-19T12:54:11.333Z,101540.55
2018-02-19T12:56:39.458Z,101538.30
2018-02-19T12:59:07.571Z,101531.38
2018-02-19T13:01:35.733Z,101535.97
2018-02-19T13:04:03.849Z,101530.09
2018-02-19T13:06:35.000Z,101521.23
2018-02-19T13:09:03.146Z,101527.41
2018-02-19T13:11:31.261Z,101522.16
2018-02-19T13:13:59.366Z,101515.25
2018-02-19T13:16:27.494Z,101516.71
2018-02-19T13:18:55.626Z,101519.34
2018-02-19T13:21:23.736Z,101515.26
2018-02-19T13:23:51.858Z,101515.17
2018-02-19T13:26:19.976Z,101524.13
2018-02-19T13:28:48.099Z,101516.59
2018-02-19T13:31:16.223Z,101517.84
2018-02-19T13:33:44.379Z,101507.14
2018-02-19T13:36:12.520Z,101509.05
2018-02-19T13:38:40.626Z,101509.89
2018-02-19T13:41:08.769Z,101509.62
2018-02-19T13:43:47.726Z,101508.00
2018-02-19T13:46:15.852Z,101505.45
2018-02-19T13:48:44.004Z,101501.84
2018-02-19T13:51:12.125Z,101503.12
2018-02-19T13:53:40.252Z,101500.78
2018-02-19T13:56:08.385Z,101501.98
2018-02-19T13:58:36.519Z,101505.58
2018-02-19T14:01:04.713Z,101504.56
2018-02-19T14:03:32.858Z,101497.78
2018-02-19T14:06:04.543Z,101493.91
2018-02-19T14:08:32.675Z,101493.29
2018-02-19T14:11:00.784Z,101490.89
2018-02-19T14:13:28.899Z,101492.77
2018-02-19T14:15:57.037Z,101489.26
2018-02-19T14:18:25.767Z,101489.54
2018-02-19T14:20:53.906Z,101491.48
2018-02-19T14:23:22.029Z,101481.73
2018-02-19T14:25:50.181Z,101489.47
2018-02-19T14:28:18.324Z,101478.53
2018-02-19T14:30:46.443Z,101480.73
2018-02-19T14:33:14.847Z,101475.94
2018-02-19T14:35:46.349Z,101481.16
2018-02-19T14:38:14.513Z,101471.34
2018-02-19T14:40:42.637Z,101469.69
2018-02-19T14:43:10.770Z,101467.92
2018-02-19T14:45:38.916Z,101462.09
2018-02-19T14:48:07.021Z,101462.84
2018-02-19T14:50:35.217Z,101460.55
2018-02-19T14:53:03.350Z,101454.30
2018-02-19T14:55:31.478Z,101451.72
2018-02-19T14:57:59.596Z,101450.44
2018-02-19T15:00:27.736Z,101451.17
2018-02-19T15:02:55.868Z,101445.97
2018-02-19T15:05:23.973Z,101443.62
2018-02-19T15:07:52.110Z,101442.05
2018-02-19T15:10:21.138Z,101450.36
2018-02-19T15:12:49.270Z,101441.16
2018-02-19T15:15:17.395Z,101439.84
2018-02-19T15:17:45.531Z,101438.40
2018-02-19T15:20:13.641Z,101436.59
2018-02-19T15:22:41.801Z,101442.94
2018-02-19T15:25:09.923Z,101438.34
2018-02-19T15:27:38.042Z,101445.78
2018-02-19T15:30:06.174Z,101447.94
2018-02-19T15:32:34.321Z,101451.30
2018-02-19T15:35:02.449Z,101452.66
2018-02-19T15:37:30.561Z,101450.42
2018-02-19T15:39:58.689Z,101447.05
2018-02-19T15:42:26.834Z,101445.80
2018-02-19T15:44:54.956Z,101437.31
2018-02-19T15:47:23.082Z,101448.29
2018-02-19T15:49:51.194Z,101434.73
2018-02-19T15:52:19.333Z,101429.47
2018-02-19T15:54:47.461Z,101431.48
2018-02-19T15:57:15.583Z,101430.48
2018-02-19T15:59:43.716Z,101434.77
2018-02-19T16:02:11.838Z,101433.97
2018-02-19T16:04:39.971Z,101432.73
2018-02-19T16:07:08.084Z,101431.58
2018-02-19T16:09:36.230Z,101430.34
2018-02-19T16:12:04.376Z,101432.63
2018-02-19T16:14:32.494Z,101427.19
2018-02-19T16:17:00.596Z,101429.53
2018-02-19T16:19:28.743Z,101425.52
2018-02-19T16:21:56.880Z,101423.03
2018-02-19T16:24:25.051Z,101422.84
2018-02-19T16:26:53.209Z,101423.65
2018-02-19T16:29:21.338Z,101411.20
2018-02-19T16:31:50.357Z,101424.33
2018-02-19T16:34:18.511Z,101415.02
2018-02-19T16:36:46.626Z,101421.80
2018-02-19T16:39:14.757Z,101422.84
2018-02-19T16:41:42.883Z,101418.78
2018-02-19T16:44:11.008Z,101427.32
2018-02-19T16:46:39.132Z,101418.39
2018-02-19T16:49:07.269Z,101425.88
2018-02-19T16:51:35.728Z,101422.31
2018-02-19T16:54:03.942Z,101425.40
2018-02-19T16:56:32.057Z,101424.92
2018-02-19T16:59:00.204Z,101423.39
2018-02-19T17:01:28.337Z,101423.39
2018-02-19T17:03:56.451Z,101424.63
2018-02-19T17:06:24.569Z,101427.23
2018-02-19T17:08:52.794Z,101428.06
2018-02-19T17:11:20.894Z,101422.82
2018-02-19T17:13:49.021Z,101422.19
2018-02-19T17:16:17.139Z,101425.38
2018-02-19T17:18:45.276Z,101422.71
2018-02-19T17:21:13.420Z,101424.47
2018-02-19T17:23:41.564Z,101423.56
2018-02-19T17:26:09.656Z,101419.65
2018-02-19T17:28:37.796Z,101422.78
2018-02-19T17:31:05.911Z,101424.70
2018-02-19T17:33:34.057Z,101430.02
2018-02-19T17:36:02.182Z,101421.91
2018-02-19T17:38:30.314Z,101427.50
2018-02-19T17:40:58.441Z,101423.59
2018-02-19T17:43:26.572Z,101428.48
2018-02-19T17:45:54.681Z,101431.57
2018-02-19T17:48:22.819Z,101429.48
2018-02-19T17:50:51.083Z,101430.66
2018-02-19T17:53:19.212Z,101431.91
2018-02-19T17:55:47.333Z,101429.75
2018-02-19T17:58:15.556Z,101435.28
2018-02-19T18:00:43.678Z,101433.48
2018-02-19T18:03:11.792Z,101427.33
2018-02-19T18:05:39.918Z,101432.12
2018-02-19T18:08:08.040Z,101429.27
2018-02-19T18:10:36.149Z,101427.54
2018-02-19T18:13:04.276Z,101428.42
2018-02-19T18:15:32.387Z,101426.42
2018-02-19T18:18:00.544Z,101427.20
2018-02-19T18:20:28.660Z,101422.23
2018-02-19T18:22:56.804Z,101430.15
2018-02-19T18:25:24.947Z,101425.72
2018-02-19T18:27:53.081Z,101431.23
2018-02-19T18:30:21.232Z,101431.00
2018-02-19T18:32:52.764Z,101423.04
2018-02-19T18:35:20.982Z,101421.01
2018-02-19T18:37:49.117Z,101423.77
2018-02-19T18:40:17.248Z,101425.84
2018-02-19T18:42:45.387Z,101429.17
2018-02-19T18:45:13.488Z,101430.41
2018-02-19T18:47:41.678Z,101429.20
2018-02-19T18:50:09.808Z,101427.83
2018-02-19T18:52:37.946Z,101430.41
2018-02-19T18:55:06.071Z,101429.70
2018-02-19T18:57:34.223Z,101429.89
2018-02-19T19:00:02.358Z,101431.83
2018-02-19T19:02:30.489Z,101429.88
2018-02-19T19:04:58.618Z,101429.70
2018-02-19T19:07:38.459Z,101436.80
2018-02-19T19:13:08.727Z,101431.22
2018-02-19T19:15:36.861Z,101434.89
2018-02-19T19:18:04.951Z,101432.42
2018-02-19T19:20:33.068Z,101434.59
2018-02-19T19:23:01.185Z,101427.44
2018-02-19T19:25:29.312Z,101434.69
2018-02-19T19:27:57.441Z,101433.11
2018-02-19T19:30:25.568Z,101437.47
2018-02-19T19:32:53.695Z,101430.70
2018-02-19T19:35:21.827Z,101432.68
2018-02-19T19:37:49.953Z,101432.11
2018-02-19T19:40:18.083Z,101432.22
2018-02-19T19:42:46.200Z,101426.64
2018-02-19T19:45:14.325Z,101427.64
2018-02-19T19:47:42.451Z,101431.05
2018-02-19T19:50:10.581Z,101432.66
2018-02-19T19:52:38.716Z,101431.57
2018-02-19T19:55:09.996Z,101430.08
2018-02-19T19:57:38.326Z,101416.42
2018-02-19T20:00:06.444Z,101426.58
2018-02-19T20:02:34.583Z,101426.56
2018-02-19T20:05:02.706Z,101430.23
2018-02-19T20:07:30.831Z,101435.30
2018-02-19T20:10:00.856Z,101431.30
2018-02-19T20:12:29.335Z,101429.06
2018-02-19T20:14:57.495Z,101426.49
2018-02-19T20:17:25.624Z,101415.64
2018-02-19T20:19:53.752Z,101420.98
2018-02-19T20:22:25.153Z,101422.41
2018-02-19T20:24:53.463Z,101417.16
2018-02-19T20:27:21.605Z,101423.91
2018-02-19T20:29:49.730Z,101419.08
2018-02-19T20:32:17.852Z,101421.58
2018-02-19T20:34:45.983Z,101424.41
2018-02-19T20:37:14.109Z,101422.25
2018-02-19T20:39:42.239Z,101421.38
2018-02-19T20:42:10.358Z,101419.74
2018-02-19T20:44:38.480Z,101419.83
2018-02-19T20:47:06.603Z,101417.45
2018-02-19T20:49:34.706Z,101420.66
2018-02-19T20:52:02.825Z,101416.09
2018-02-19T20:54:30.958Z,101419.73
2018-02-19T20:56:59.080Z,101429.50
2018-02-19T20:59:27.216Z,101430.67
2018-02-19T21:01:55.329Z,101423.87
2018-02-19T21:04:23.451Z,101418.79
2018-02-19T21:06:51.573Z,101416.80
2018-02-19T21:09:19.717Z,101412.80
2018-02-19T21:11:47.837Z,101412.70
2018-02-19T21:14:15.956Z,101403.37
2018-02-19T21:16:44.075Z,101402.61
2018-02-19T21:19:12.184Z,101409.87
2018-02-19T21:21:40.326Z,101404.97
2018-02-19T21:24:08.458Z,101400.88
2018-02-19T21:26:36.575Z,101398.61
2018-02-19T21:29:04.686Z,101404.30
2018-02-19T21:31:32.824Z,101403.73
2018-02-19T21:34:00.940Z,101397.51
2018-02-19T21:36:29.064Z,101398.59
2018-02-19T21:38:57.210Z,101405.91
2018-02-19T21:41:25.299Z,101401.66
2018-02-19T21:43:53.417Z,101399.93
2018-02-19T21:46:21.531Z,101394.25
2018-02-19T21:48:49.702Z,101391.09
2018-02-19T21:51:17.768Z,101388.43
2018-02-19T21:53:45.900Z,101386.44
2018-02-19T21:56:14.033Z,101383.52
2018-02-19T21:58:42.143Z,101386.52
2018-02-19T22:01:10.443Z,101383.44
2018-02-19T22:03:38.553Z,101383.20
2018-02-19T22:06:06.691Z,101384.98
2018-02-19T22:08:34.806Z,101384.22
2018-02-19T22:11:02.938Z,101387.39
2018-02-19T22:13:31.074Z,101386.81
2018-02-19T22:15:59.203Z,101386.16
2018-02-19T22:18:27.424Z,101396.81
2018-02-19T22:20:55.556Z,101391.16
2018-02-19T22:23:23.724Z,101387.59
2018-02-19T22:25:51.825Z,101389.06
2018-02-19T22:28:19.954Z,101385.75
2018-02-19T22:30:48.099Z,101391.41
2018-02-19T22:33:16.208Z,101387.01
2018-02-19T22:35:44.312Z,101389.34
2018-02-19T22:38:12.427Z,101391.04
2018-02-19T22:40:40.562Z,101391.88
2018-02-19T22:43:08.689Z,101388.94
2018-02-19T22:45:36.800Z,101398.86
2018-02-19T22:48:04.931Z,101402.92
2018-02-19T22:50:33.078Z,101398.34
2018-02-19T22:53:01.205Z,101393.59
2018-02-19T22:55:35.587Z,101396.00
2018-02-19T22:58:03.701Z,101397.55
2018-02-19T23:00:31.833Z,101400.47
2018-02-19T23:02:59.942Z,101405.63
2018-02-19T23:05:28.060Z,101409.78
2018-02-19T23:07:56.185Z,101407.77
2018-02-19T23:10:24.311Z,101406.14
2018-02-19T23:12:52.431Z,101408.69
2018-02-19T23:15:20.545Z,101407.36
2018-02-19T23:17:48.682Z,101410.66
2018-02-19T23:20:16.803Z,101412.08
2018-02-19T23:22:44.935Z,101409.53
2018-02-19T23:25:13.057Z,101422.55
2018-02-19T23:27:41.197Z,101411.90
2018-02-19T23:47:36.509Z,101414.98
2018-02-19T23:50:07.510Z,101419.13
2018-02-19T23:52:35.716Z,101417.70
2018-02-19T23:55:09.863Z,101416.03
2018-02-19T23:57:38.851Z,101420.91
